Time;durP1;ratioP1;P1;durP2;ratioP2;P2;SDS_P1;SDS_P2;PMS_P1;PMS_P2;Temp;Humidity;BMP_temperature;BMP_pressure;BME280_temperature;BME280_humidity;BME280_pressure;Samples;Min_cycle;Max_cycle;Signal;HPM_P1;HPM_P2
2021/11/20 00:01:24;;;;;;;1.90;1.75;;;19.10;63.40;;;;;;5028839;28;20026;-24
2021/11/20 00:03:50;;;;;;;3.20;1.73;;;19.10;63.40;;;;;;5028151;28;20034;-23
2021/11/20 00:06:34;;;;;;;2.35;1.85;;;19.10;63.40;;;;;;5035250;28;20036;-22
2021/11/20 00:09:01;;;;;;;2.20;2.10;;;19.00;63.20;;;;;;5033513;28;20030;-26
2021/11/20 00:11:28;;;;;;;2.90;1.80;;;19.00;63.30;;;;;;5035885;28;20033;-22
2021/11/20 00:13:54;;;;;;;2.05;1.85;;;19.10;63.30;;;;;;5036473;28;20026;-24
2021/11/20 00:16:22;;;;;;;2.35;2.15;;;19.00;63.10;;;;;;5039106;28;20013;-28
2021/11/20 00:18:48;;;;;;;2.00;1.80;;;19.00;63.20;;;;;;5035623;28;20394;-24
2021/11/20 00:21:18;;;;;;;2.40;1.90;;;18.90;63.20;;;;;;5036249;28;20027;-25
2021/11/20 00:23:49;;;;;;;2.30;2.10;;;19.00;63.20;;;;;;5035629;28;20103;-25
2021/11/20 00:26:17;;;;;;;2.05;1.92;;;19.00;63.10;;;;;;5018123;28;20030;-23
2021/11/20 00:31:22;;;;;;;2.05;1.95;;;19.00;62.90;;;;;;5035580;28;20063;-27
2021/11/20 00:33:47;;;;;;;1.75;1.65;;;19.00;63.00;;;;;;5048681;28;20113;-22
2021/11/20 00:36:13;;;;;;;1.60;1.50;;;19.00;63.00;;;;;;5025454;28;20030;-28
2021/11/20 00:38:39;;;;;;;2.20;2.00;;;18.90;62.80;;;;;;5043656;28;20750;-24
2021/11/20 00:41:11;;;;;;;1.52;1.42;;;18.90;62.90;;;;;;5035701;28;20096;-25
2021/11/20 00:43:37;;;;;;;4.20;1.80;;;18.90;63.00;;;;;;5032247;28;20041;-27
2021/11/20 00:46:03;;;;;;;1.92;1.42;;;18.90;62.90;;;;;;5043510;28;20659;-22
2021/11/20 00:48:28;;;;;;;2.00;1.85;;;18.90;63.10;;;;;;5023508;28;20034;-21
2021/11/20 00:50:58;;;;;;;1.75;1.65;;;18.90;62.90;;;;;;5036663;28;20033;-24
2021/11/20 00:53:23;;;;;;;1.73;1.60;;;18.90;62.80;;;;;;5037282;28;20060;-26
2021/11/20 00:55:49;;;;;;;2.10;1.90;;;18.90;63.00;;;;;;5035017;28;20025;-20
2021/11/20 00:58:15;;;;;;;1.58;1.48;;;18.80;63.00;;;;;;5034238;28;20056;-22
2021/11/20 01:00:50;;;;;;;2.80;1.73;;;18.90;62.90;;;;;;5037705;28;20118;-23
2021/11/20 01:03:15;;;;;;;1.70;1.60;;;18.80;62.80;;;;;;5036369;28;20509;-26
2021/11/20 01:05:42;;;;;;;1.90;1.60;;;18.80;63.10;;;;;;5035901;28;20045;-29
2021/11/20 01:08:08;;;;;;;2.03;1.80;;;18.80;62.90;;;;;;5034462;28;20032;-27
2021/11/20 01:10:37;;;;;;;1.60;1.50;;;18.80;63.10;;;;;;5019542;28;20032;-24
2021/11/20 01:13:03;;;;;;;1.52;1.42;;;18.90;63.00;;;;;;5035815;28;20075;-26
2021/11/20 01:15:38;;;;;;;1.70;1.60;;;18.90;62.70;;;;;;5036010;28;20510;-26
2021/11/20 01:18:04;;;;;;;1.60;1.50;;;18.80;62.80;;;;;;5037633;28;20505;-21
2021/11/20 01:20:30;;;;;;;1.77;1.67;;;18.80;62.80;;;;;;5036011;28;20398;-26
2021/11/20 01:22:56;;;;;;;1.90;1.80;;;18.90;62.90;;;;;;5035963;28;20037;-25
2021/11/20 01:25:22;;;;;;;1.83;1.73;;;18.80;62.80;;;;;;5035518;28;20080;-23
2021/11/20 01:27:47;;;;;;;1.50;1.40;;;18.80;62.90;;;;;;5034519;28;20053;-24
2021/11/20 01:30:14;;;;;;;1.70;1.60;;;18.80;63.00;;;;;;5027971;28;20491;-23
2021/11/20 01:32:39;;;;;;;1.92;1.73;;;18.80;62.90;;;;;;5034925;28;20114;-27
2021/11/20 01:35:07;;;;;;;1.75;1.65;;;18.80;62.80;;;;;;5035559;28;20037;-23
2021/11/20 01:37:34;;;;;;;1.48;1.38;;;18.80;62.90;;;;;;5033494;28;20053;-27
2021/11/20 01:39:59;;;;;;;1.70;1.60;;;18.70;63.00;;;;;;5016351;28;20101;-21
2021/11/20 01:42:31;;;;;;;1.67;1.58;;;18.70;62.90;;;;;;5015755;28;20062;-24
2021/11/20 01:45:10;;;;;;;1.63;1.52;;;18.70;63.20;;;;;;5015802;28;20030;-23
2021/11/20 01:48:20;;;;;;;1.63;1.52;;;18.70;63.20;;;;;;5034375;28;20099;-20
2021/11/20 01:50:53;;;;;;;1.20;1.20;;;18.70;63.30;;;;;;5029099;28;20033;-27
2021/11/20 01:53:25;;;;;;;1.20;1.17;;;18.70;63.10;;;;;;5055181;28;20021;-26
2021/11/20 01:56:05;;;;;;;1.60;1.50;;;18.70;63.00;;;;;;5050944;28;20613;-23
2021/11/20 01:59:02;;;;;;;1.77;1.67;;;18.70;63.80;;;;;;5051743;28;20032;-23
2021/11/20 02:01:58;;;;;;;1.55;1.45;;;18.70;63.00;;;;;;5034248;28;20083;-25
2021/11/20 02:04:33;;;;;;;1.65;1.50;;;18.70;63.20;;;;;;5025748;28;20052;-23
2021/11/20 02:07:21;;;;;;;1.67;1.58;;;18.70;62.70;;;;;;5021806;28;20037;-22
2021/11/20 02:10:13;;;;;;;1.50;1.40;;;18.70;62.70;;;;;;5053376;28;20417;-24
2021/11/20 02:12:55;;;;;;;1.55;1.40;;;18.70;62.70;;;;;;5068351;28;20044;-24
2021/11/20 02:15:46;;;;;;;1.45;1.35;;;18.70;62.70;;;;;;5065165;28;20026;-21
2021/11/20 02:18:12;;;;;;;1.33;1.23;;;18.70;62.60;;;;;;5023477;28;20026;-29
2021/11/20 02:20:43;;;;;;;1.25;1.15;;;18.70;62.50;;;;;;5036249;28;20037;-24
2021/11/20 02:23:08;;;;;;;1.35;1.25;;;18.70;62.50;;;;;;5028378;28;20105;-24
2021/11/20 02:25:34;;;;;;;2.25;1.38;;;18.70;62.30;;;;;;5035410;28;20091;-22
2021/11/20 02:28:00;;;;;;;1.55;1.45;;;18.80;62.40;;;;;;5036336;28;20047;-25
2021/11/20 02:30:37;;;;;;;1.60;1.50;;;18.70;62.20;;;;;;5033883;28;20033;-20
2021/11/20 02:33:06;;;;;;;1.65;1.55;;;18.80;62.30;;;;;;5040478;28;20029;-23
2021/11/20 02:35:39;;;;;;;1.40;1.27;;;18.70;62.20;;;;;;5039974;28;20056;-27
2021/11/20 02:38:06;;;;;;;1.30;1.20;;;18.80;62.10;;;;;;5031811;28;20030;-29
2021/11/20 02:40:32;;;;;;;1.48;1.38;;;18.80;62.10;;;;;;5016668;28;20034;-26
2021/11/20 02:42:57;;;;;;;1.58;1.48;;;18.80;62.00;;;;;;5016496;28;20025;-26
2021/11/20 02:45:24;;;;;;;1.33;1.25;;;18.80;61.90;;;;;;5018460;28;20033;-27
2021/11/20 02:47:50;;;;;;;1.58;1.48;;;18.80;61.90;;;;;;5032759;28;20033;-24
2021/11/20 02:50:23;;;;;;;1.33;1.23;;;18.80;61.90;;;;;;5035276;28;20588;-24
2021/11/20 02:52:49;;;;;;;1.50;1.30;;;18.70;61.90;;;;;;5034403;28;20149;-25
2021/11/20 02:55:14;;;;;;;1.70;1.25;;;18.70;62.00;;;;;;5034234;28;20052;-27
2021/11/20 02:57:40;;;;;;;1.45;1.35;;;18.70;62.10;;;;;;5024677;28;20032;-21
2021/11/20 03:00:13;;;;;;;1.67;1.58;;;18.70;61.90;;;;;;5039403;28;20057;-23
2021/11/20 03:02:39;;;;;;;1.38;1.30;;;18.70;61.90;;;;;;5043343;28;20025;-22
2021/11/20 03:05:05;;;;;;;1.40;1.20;;;18.70;61.90;;;;;;5032549;28;20037;-26
2021/11/20 03:07:31;;;;;;;1.30;1.20;;;18.70;61.90;;;;;;5019744;28;20026;-20
2021/11/20 03:09:56;;;;;;;1.13;1.02;;;18.70;61.80;;;;;;5030904;28;20041;-26
2021/11/20 03:12:22;;;;;;;1.27;1.00;;;18.70;61.80;;;;;;5038648;28;20033;-23
2021/11/20 03:14:47;;;;;;;1.10;1.10;;;18.70;61.70;;;;;;5043743;28;20049;-27
2021/11/20 03:17:13;;;;;;;1.55;1.13;;;18.70;61.70;;;;;;5039235;28;20542;-24
2021/11/20 03:19:44;;;;;;;1.35;1.25;;;18.70;61.70;;;;;;5039245;28;20017;-26
2021/11/20 03:22:17;;;;;;;1.40;1.30;;;18.70;61.70;;;;;;5020647;28;20411;-22
2021/11/20 03:24:43;;;;;;;1.38;1.27;;;18.70;61.70;;;;;;5032041;28;20025;-26
2021/11/20 03:27:08;;;;;;;1.50;1.40;;;18.70;61.60;;;;;;5030721;28;20022;-26
2021/11/20 03:29:34;;;;;;;1.55;1.40;;;18.70;61.70;;;;;;5031083;28;20037;-25
2021/11/20 03:32:00;;;;;;;1.33;1.23;;;18.70;61.50;;;;;;5036373;28;20193;-24
2021/11/20 03:34:27;;;;;;;1.17;1.08;;;18.70;61.60;;;;;;5039154;28;20029;-24
2021/11/20 03:36:53;;;;;;;1.10;1.10;;;18.70;61.50;;;;;;5039090;28;20071;-26
2021/11/20 03:39:19;;;;;;;1.58;1.48;;;18.70;61.70;;;;;;5020954;28;20442;-23
2021/11/20 03:41:44;;;;;;;1.40;1.30;;;18.70;61.50;;;;;;5019110;28;20037;-26
2021/11/20 03:44:10;;;;;;;1.55;1.40;;;18.70;61.50;;;;;;5027282;28;20113;-21
2021/11/20 03:46:36;;;;;;;1.23;1.13;;;18.70;61.50;;;;;;5039604;28;20497;-20
2021/11/20 03:49:02;;;;;;;1.38;1.17;;;18.70;61.50;;;;;;5037180;28;20178;-29
2021/11/20 03:51:28;;;;;;;1.20;1.10;;;18.70;61.60;;;;;;5038181;28;20067;-27
2021/11/20 03:53:54;;;;;;;1.20;1.10;;;18.70;61.60;;;;;;5038726;28;20101;-26
2021/11/20 03:56:19;;;;;;;1.10;1.00;;;18.70;61.50;;;;;;5038544;28;20021;-21
2021/11/20 03:58:45;;;;;;;2.35;1.55;;;18.60;61.60;;;;;;5038437;28;20540;-20
2021/11/20 04:01:13;;;;;;;0.82;0.82;;;18.70;61.50;;;;;;5028648;28;20592;-25
2021/11/20 04:03:39;;;;;;;1.10;0.98;;;18.70;61.50;;;;;;5033601;28;20025;-25
2021/11/20 04:06:12;;;;;;;1.10;1.00;;;18.70;61.50;;;;;;5036755;28;20025;-25
2021/11/20 04:08:38;;;;;;;0.93;0.90;;;18.60;62.30;;;;;;5037976;28;20437;-23
2021/11/20 04:11:03;;;;;;;1.00;1.00;;;18.60;61.50;;;;;;5038036;28;20026;-22
2021/11/20 04:13:29;;;;;;;0.88;0.88;;;18.60;61.50;;;;;;5038447;28;20490;-27
2021/11/20 04:15:55;;;;;;;1.00;1.00;;;18.60;61.60;;;;;;5031790;28;20033;-27
2021/11/20 04:18:21;;;;;;;1.33;1.25;;;18.60;61.60;;;;;;5025650;28;20029;-26
2021/11/20 04:20:46;;;;;;;1.10;1.00;;;18.60;61.50;;;;;;5041096;28;20611;-25
2021/11/20 04:23:12;;;;;;;1.00;0.90;;;18.60;61.50;;;;;;5037704;28;20079;-24
2021/11/20 04:25:38;;;;;;;1.83;0.80;;;18.60;61.50;;;;;;5038195;28;20021;-24
2021/11/20 04:28:03;;;;;;;1.05;1.05;;;18.60;61.50;;;;;;5034417;28;20398;-27
2021/11/20 04:30:29;;;;;;;1.02;1.02;;;18.60;61.50;;;;;;5022154;28;20108;-28
2021/11/20 04:32:55;;;;;;;1.55;0.90;;;18.60;61.50;;;;;;5042181;28;20505;-22
2021/11/20 04:35:22;;;;;;;0.90;0.90;;;18.60;61.50;;;;;;5027138;28;20041;-29
2021/11/20 04:37:48;;;;;;;0.90;0.90;;;18.60;61.50;;;;;;5030011;28;20030;-26
2021/11/20 04:40:14;;;;;;;1.20;1.10;;;18.60;61.60;;;;;;5042476;28;20033;-25
2021/11/20 04:42:40;;;;;;;0.93;0.93;;;18.50;61.60;;;;;;5037430;28;20025;-24
2021/11/20 04:45:08;;;;;;;1.40;0.93;;;18.60;61.60;;;;;;5036411;28;20576;-22
2021/11/20 04:47:34;;;;;;;1.17;1.10;;;18.50;61.60;;;;;;5017656;28;20078;-23
2021/11/20 04:50:00;;;;;;;1.60;1.50;;;18.50;61.60;;;;;;5017936;28;20037;-24
2021/11/20 04:52:26;;;;;;;1.10;1.10;;;18.50;61.50;;;;;;5017842;28;20034;-23
2021/11/20 04:54:52;;;;;;;1.00;1.00;;;18.60;61.50;;;;;;5021782;28;20109;-24
2021/11/20 04:57:17;;;;;;;1.17;1.10;;;18.50;61.40;;;;;;5027152;28;20112;-26
2021/11/20 04:59:43;;;;;;;1.10;1.00;;;18.50;61.40;;;;;;5020912;28;20026;-24
2021/11/20 05:02:09;;;;;;;0.90;0.90;;;18.50;61.50;;;;;;5031156;28;20092;-21
2021/11/20 05:04:34;;;;;;;1.30;1.20;;;18.50;61.40;;;;;;5035828;28;20022;-29
2021/11/20 05:07:00;;;;;;;0.82;0.82;;;18.50;61.60;;;;;;5032567;28;20029;-23
2021/11/20 05:09:26;;;;;;;1.25;1.15;;;18.50;61.60;;;;;;5028396;28;20072;-22
2021/11/20 05:11:52;;;;;;;0.95;0.90;;;18.50;61.70;;;;;;5027358;28;20030;-21
2021/11/20 05:14:17;;;;;;;0.80;0.80;;;18.50;61.60;;;;;;5026999;28;20029;-24
2021/11/20 05:16:43;;;;;;;0.88;0.88;;;18.50;61.70;;;;;;5037177;28;20083;-21
2021/11/20 05:19:08;;;;;;;1.33;1.05;;;18.50;61.50;;;;;;5028416;28;20576;-21
2021/11/20 05:21:34;;;;;;;0.93;0.82;;;18.50;61.50;;;;;;5037113;28;20079;-25
2021/11/20 05:24:00;;;;;;;0.85;0.85;;;18.50;61.50;;;;;;5024732;28;20029;-25
2021/11/20 05:26:26;;;;;;;1.00;1.00;;;18.50;61.50;;;;;;5036802;28;20068;-29
2021/11/20 05:29:01;;;;;;;1.20;1.10;;;18.50;61.50;;;;;;5032616;28;20041;-32
2021/11/20 05:31:27;;;;;;;1.15;1.15;;;18.50;61.60;;;;;;5022195;28;20160;-31
2021/11/20 05:33:52;;;;;;;1.20;1.10;;;18.50;61.50;;;;;;5040019;28;20061;-23
2021/11/20 05:36:20;;;;;;;0.90;0.90;;;18.50;61.50;;;;;;5026296;28;20072;-20
2021/11/20 05:38:46;;;;;;;0.80;0.80;;;18.40;61.60;;;;;;5039809;28;20433;-25
2021/11/20 05:41:11;;;;;;;0.80;0.80;;;18.40;61.50;;;;;;5037693;28;20033;-27
2021/11/20 05:43:37;;;;;;;0.98;0.98;;;18.40;61.50;;;;;;5035980;28;20041;-23
2021/11/20 05:46:06;;;;;;;0.98;0.98;;;18.40;61.50;;;;;;5029587;28;20064;-23
2021/11/20 05:48:32;;;;;;;1.00;0.90;;;18.40;61.50;;;;;;5032857;28;20463;-28
2021/11/20 05:50:57;;;;;;;0.88;0.88;;;18.40;61.50;;;;;;5040426;28;20026;-28
2021/11/20 05:53:24;;;;;;;1.20;1.10;;;18.40;61.60;;;;;;5035928;28;20026;-27
2021/11/20 05:55:50;;;;;;;0.80;0.80;;;18.40;61.60;;;;;;5036759;28;20018;-29
2021/11/20 05:58:16;;;;;;;1.77;0.93;;;18.40;61.50;;;;;;5036584;28;20036;-28
2021/11/20 06:00:44;;;;;;;0.80;0.80;;;18.40;61.50;;;;;;5034236;28;20028;-23
2021/11/20 06:03:10;;;;;;;1.02;1.00;;;18.40;61.50;;;;;;5024721;28;20087;-23
2021/11/20 06:05:36;;;;;;;1.27;1.17;;;18.40;61.50;;;;;;5033694;28;20030;-27
2021/11/20 06:08:02;;;;;;;1.10;1.10;;;18.40;61.50;;;;;;5017485;28;20398;-24
2021/11/20 06:10:28;;;;;;;1.20;1.10;;;18.40;61.40;;;;;;5016586;28;20029;-28
2021/11/20 06:12:53;;;;;;;1.00;1.00;;;18.40;61.40;;;;;;5016664;28;20514;-28
2021/11/20 06:15:19;;;;;;;0.75;0.75;;;18.40;61.40;;;;;;5016566;28;20026;-21
2021/11/20 06:17:45;;;;;;;0.80;0.80;;;18.40;61.50;;;;;;5018197;28;20037;-23
2021/11/20 06:20:10;;;;;;;1.05;0.82;;;18.40;61.50;;;;;;5020618;28;20021;-23
2021/11/20 06:22:36;;;;;;;1.00;1.00;;;18.40;61.50;;;;;;5039830;28;20112;-25
2021/11/20 06:25:03;;;;;;;1.05;0.95;;;18.40;61.50;;;;;;5035236;28;20410;-24
2021/11/20 06:27:28;;;;;;;1.00;1.00;;;18.40;61.60;;;;;;5033411;28;20065;-26
2021/11/20 06:29:54;;;;;;;0.95;0.95;;;18.40;61.50;;;;;;5032558;28;20026;-26
2021/11/20 06:32:20;;;;;;;0.80;0.80;;;18.40;61.40;;;;;;5040030;28;20034;-25
2021/11/20 06:34:45;;;;;;;0.82;0.82;;;18.40;61.50;;;;;;5038345;28;20017;-22
2021/11/20 06:37:11;;;;;;;0.90;0.80;;;18.30;61.40;;;;;;5041197;28;20367;-27
2021/11/20 06:39:38;;;;;;;0.85;0.85;;;18.30;61.40;;;;;;5040381;28;20021;-26
2021/11/20 06:42:05;;;;;;;0.90;0.90;;;18.30;61.40;;;;;;5023045;28;20479;-22
2021/11/20 06:44:31;;;;;;;0.82;0.82;;;18.30;61.50;;;;;;5020024;28;20030;-20
2021/11/20 06:46:57;;;;;;;0.88;0.88;;;18.40;61.50;;;;;;5020177;28;20046;-22
2021/11/20 06:49:23;;;;;;;0.95;0.95;;;18.30;61.30;;;;;;5020113;28;20083;-24
2021/11/20 06:51:48;;;;;;;0.93;0.93;;;18.40;61.40;;;;;;5031193;28;20029;-24
2021/11/20 06:54:14;;;;;;;1.10;1.10;;;18.40;61.40;;;;;;5032721;28;20027;-26
2021/11/20 06:56:46;;;;;;;1.00;1.00;;;18.40;61.40;;;;;;5043712;28;20120;-26
2021/11/20 07:01:51;;;;;;;0.70;0.70;;;18.30;61.40;;;;;;5041526;28;20473;-25
2021/11/20 07:04:19;;;;;;;0.65;0.65;;;18.30;61.40;;;;;;5052407;28;20021;-25
2021/11/20 07:06:54;;;;;;;0.98;0.95;;;18.40;61.40;;;;;;5043817;28;20604;-24
2021/11/20 07:09:20;;;;;;;1.02;0.68;;;18.30;61.40;;;;;;5042369;28;20029;-24
2021/11/20 07:11:46;;;;;;;0.85;0.80;;;18.30;61.40;;;;;;5075292;28;20044;-32
2021/11/20 07:14:12;;;;;;;1.13;1.02;;;18.30;61.50;;;;;;5073408;28;20028;-24
2021/11/20 07:16:37;;;;;;;0.63;0.63;;;18.30;61.40;;;;;;5038576;28;20026;-24
2021/11/20 07:19:03;;;;;;;0.85;0.85;;;18.30;61.40;;;;;;5039125;28;20026;-28
2021/11/20 07:21:28;;;;;;;0.77;0.77;;;18.30;61.50;;;;;;5039420;28;20488;-20
2021/11/20 07:23:55;;;;;;;1.10;0.90;;;18.30;61.60;;;;;;5026250;28;20030;-25
2021/11/20 07:26:21;;;;;;;0.90;0.90;;;18.30;61.50;;;;;;5026162;28;20032;-21
2021/11/20 07:28:47;;;;;;;0.75;0.75;;;18.30;61.50;;;;;;5034112;28;20627;-25
2021/11/20 07:31:12;;;;;;;0.80;0.80;;;18.20;61.90;;;;;;5034296;28;20132;-26
2021/11/20 07:33:39;;;;;;;0.85;0.85;;;18.30;61.70;;;;;;5041235;28;20037;-21
2021/11/20 07:36:05;;;;;;;0.80;0.80;;;18.20;61.70;;;;;;5050657;28;20045;-26
2021/11/20 07:38:36;;;;;;;0.88;0.88;;;18.20;61.80;;;;;;5041471;28;20128;-21
2021/11/20 07:41:02;;;;;;;0.90;0.90;;;18.30;61.70;;;;;;5012456;28;20196;-28
2021/11/20 07:43:27;;;;;;;0.70;0.70;;;18.30;61.70;;;;;;5018413;28;20499;-24
2021/11/20 07:45:53;;;;;;;0.70;0.70;;;18.30;61.70;;;;;;5017342;28;20135;-26
2021/11/20 07:48:24;;;;;;;1.05;1.05;;;18.30;61.70;;;;;;5026514;28;20631;-29
2021/11/20 07:50:50;;;;;;;1.40;0.90;;;18.30;61.80;;;;;;5027670;28;20046;-26
2021/11/20 07:53:17;;;;;;;0.70;0.70;;;18.30;61.80;;;;;;5007736;28;20511;-30
2021/11/20 07:55:43;;;;;;;1.70;0.90;;;18.30;61.90;;;;;;5015522;28;20430;-22
2021/11/20 07:58:09;;;;;;;0.75;0.75;;;18.30;62.00;;;;;;5008888;28;20053;-25
2021/11/20 08:00:35;;;;;;;0.80;0.80;;;18.30;62.10;;;;;;4682620;28;10000612;-29
2021/11/20 08:03:00;;;;;;;1.15;0.95;;;18.20;62.60;;;;;;5004925;28;20053;-23
2021/11/20 08:05:28;;;;;;;1.20;1.08;;;18.20;62.70;;;;;;5006642;28;20056;-25
2021/11/20 08:07:54;;;;;;;0.90;0.75;;;18.20;62.80;;;;;;5009206;28;20073;-27
2021/11/20 08:10:20;;;;;;;1.23;1.13;;;18.20;62.90;;;;;;5013344;28;20160;-25
2021/11/20 08:12:45;;;;;;;0.95;0.95;;;18.20;63.00;;;;;;5014431;28;20165;-28
2021/11/20 08:15:11;;;;;;;1.45;0.90;;;18.20;63.00;;;;;;5023316;28;20041;-24
2021/11/20 08:17:37;;;;;;;1.90;0.90;;;18.20;63.10;;;;;;5027028;28;20126;-20
2021/11/20 08:20:07;;;;;;;1.02;1.02;;;18.20;63.00;;;;;;5029332;28;20215;-25
2021/11/20 08:22:32;;;;;;;0.80;0.80;;;18.20;63.10;;;;;;5034078;28;20053;-22
2021/11/20 08:24:58;;;;;;;1.00;1.00;;;18.20;63.20;;;;;;5035859;28;20045;-25
2021/11/20 08:27:24;;;;;;;0.98;0.90;;;18.20;63.30;;;;;;5035803;28;20049;-21
2021/11/20 08:29:49;;;;;;;0.80;0.80;;;18.20;63.40;;;;;;5023083;28;20096;-24
2021/11/20 08:32:15;;;;;;;0.80;0.80;;;18.20;63.30;;;;;;5010824;28;20104;-28
2021/11/20 08:34:42;;;;;;;2.42;0.95;;;18.20;63.20;;;;;;5037867;28;20103;-24
2021/11/20 08:37:08;;;;;;;1.23;0.80;;;18.20;63.50;;;;;;5028739;28;20042;-27
2021/11/20 08:39:34;;;;;;;3.00;1.10;;;18.20;63.70;;;;;;5005134;28;20065;-20
2021/11/20 08:41:59;;;;;;;2.63;1.20;;;18.20;63.80;;;;;;5008783;28;20045;-24
2021/11/20 08:44:26;;;;;;;3.35;1.23;;;18.20;63.80;;;;;;5014782;28;20045;-21
2021/11/20 08:46:51;;;;;;;2.95;0.93;;;18.20;63.90;;;;;;5030101;28;20056;-22
2021/11/20 08:49:17;;;;;;;1.23;1.00;;;18.20;64.70;;;;;;5036719;28;20045;-23
2021/11/20 08:51:43;;;;;;;2.80;1.10;;;18.20;64.50;;;;;;5032274;28;20056;-20
2021/11/20 08:54:09;;;;;;;3.72;1.15;;;18.20;64.90;;;;;;5034797;28;20045;-25
2021/11/20 08:56:37;;;;;;;1.77;1.20;;;18.20;65.00;;;;;;5033613;28;20049;-24
2021/11/20 08:59:03;;;;;;;1.85;1.60;;;18.20;65.10;;;;;;5031122;28;20041;-24
2021/11/20 09:01:37;;;;;;;1.60;1.30;;;18.20;65.20;;;;;;5026401;28;20061;-24
2021/11/20 09:04:07;;;;;;;1.55;1.20;;;18.20;65.30;;;;;;5005024;28;20129;-26
2021/11/20 09:06:45;;;;;;;1.25;1.10;;;18.30;65.40;;;;;;5039573;28;20117;-23
2021/11/20 09:09:36;;;;;;;1.38;1.20;;;18.20;65.40;;;;;;5043598;28;20134;-28
2021/11/20 09:12:13;;;;;;;1.63;1.27;;;18.20;65.40;;;;;;5027710;28;20041;-20
2021/11/20 09:14:52;;;;;;;1.58;1.17;;;18.20;66.00;;;;;;5022444;28;20080;-27
2021/11/20 09:17:18;;;;;;;3.60;1.20;;;18.30;66.30;;;;;;5018981;28;20054;-24
2021/11/20 09:19:44;;;;;;;2.53;1.10;;;18.30;66.40;;;;;;5033284;28;20036;-23
2021/11/20 09:22:09;;;;;;;3.20;1.80;;;18.30;66.50;;;;;;5029529;28;20046;-24
2021/11/20 09:24:36;;;;;;;3.45;1.63;;;18.30;66.40;;;;;;5026174;28;20033;-23
2021/11/20 09:27:02;;;;;;;5.70;2.58;;;18.30;66.30;;;;;;5037043;28;20517;-27
2021/11/20 09:29:29;;;;;;;4.65;2.20;;;18.30;66.50;;;;;;5022783;28;20022;-24
2021/11/20 09:31:54;;;;;;;7.15;2.33;;;18.40;66.50;;;;;;5034418;28;20037;-23
2021/11/20 09:34:20;;;;;;;4.68;2.40;;;18.30;66.40;;;;;;5032914;28;20108;-25
2021/11/20 09:36:47;;;;;;;3.40;2.17;;;18.30;66.70;;;;;;5021003;28;20029;-21
2021/11/20 09:39:14;;;;;;;5.32;2.10;;;18.20;66.60;;;;;;5030917;28;20108;-24
2021/11/20 09:42:16;;;;;;;3.55;2.00;;;18.30;66.60;;;;;;5038870;28;21273;-26
2021/11/20 09:44:43;;;;;;;5.90;2.60;;;18.30;66.70;;;;;;5025022;28;20612;-20
2021/11/20 09:47:21;;;;;;;4.53;1.80;;;18.30;66.50;;;;;;5045161;28;20063;-24
2021/11/20 09:49:49;;;;;;;4.13;2.08;;;18.30;66.40;;;;;;5035264;28;20033;-22
2021/11/20 09:52:15;;;;;;;2.75;1.60;;;18.30;66.40;;;;;;5050411;28;20053;-20
2021/11/20 09:54:41;;;;;;;3.22;2.00;;;18.30;66.30;;;;;;5032260;28;20024;-22
2021/11/20 09:57:10;;;;;;;3.22;1.75;;;18.30;66.40;;;;;;5053197;28;20591;-28
2021/11/20 09:59:38;;;;;;;5.00;2.13;;;18.30;66.40;;;;;;5052666;28;20021;-26
2021/11/20 10:02:21;;;;;;;3.05;1.80;;;18.30;66.30;;;;;;5032232;28;20049;-23
2021/11/20 10:05:11;;;;;;;1.83;1.65;;;18.30;66.30;;;;;;5019601;28;20483;-27
2021/11/20 10:07:37;;;;;;;2.33;1.80;;;18.30;66.30;;;;;;5024487;28;20045;-20
2021/11/20 10:10:14;;;;;;;3.30;1.58;;;18.30;66.20;;;;;;5028456;28;20017;-28
2021/11/20 10:13:03;;;;;;;2.00;1.58;;;18.30;66.30;;;;;;5052877;28;20025;-23
2021/11/20 10:15:37;;;;;;;4.13;1.85;;;18.20;66.20;;;;;;5052701;28;20025;-23
2021/11/20 10:18:11;;;;;;;3.20;1.70;;;18.20;66.10;;;;;;5052980;28;20043;-28
2021/11/20 10:20:44;;;;;;;4.00;2.00;;;18.30;66.10;;;;;;5052493;28;20116;-20
2021/11/20 10:23:10;;;;;;;3.17;1.90;;;18.30;66.00;;;;;;5043985;28;20030;-24
2021/11/20 10:25:55;;;;;;;4.50;1.83;;;18.30;66.00;;;;;;5028196;28;20497;-25
2021/11/20 10:28:42;;;;;;;3.63;1.77;;;18.30;65.90;;;;;;5037033;28;20063;-22
2021/11/20 10:31:14;;;;;;;2.70;1.65;;;18.20;65.90;;;;;;5033479;28;20127;-24
2021/11/20 10:33:42;;;;;;;4.40;1.77;;;18.30;66.10;;;;;;5024134;28;20029;-29
2021/11/20 10:36:20;;;;;;;2.10;1.50;;;18.20;66.00;;;;;;5040704;28;20021;-20
2021/11/20 10:38:49;;;;;;;2.90;1.48;;;18.20;65.90;;;;;;5044676;28;20022;-25
2021/11/20 10:41:19;;;;;;;2.00;1.38;;;18.20;65.90;;;;;;5036567;28;20083;-30
2021/11/20 10:43:49;;;;;;;3.05;1.80;;;18.30;66.00;;;;;;5036102;28;20107;-25
2021/11/20 10:46:35;;;;;;;1.67;1.40;;;18.30;65.90;;;;;;5035291;28;20049;-26
2021/11/20 10:49:26;;;;;;;1.73;1.35;;;18.20;65.80;;;;;;5025282;28;20158;-22
2021/11/20 10:52:15;;;;;;;1.48;1.15;;;18.30;65.90;;;;;;5027441;28;20069;-28
2021/11/20 10:55:13;;;;;;;4.50;1.58;;;18.30;65.90;;;;;;5019695;28;20575;-26
2021/11/20 10:58:01;;;;;;;2.75;1.35;;;18.20;65.80;;;;;;5069360;28;20491;-32
2021/11/20 11:01:04;;;;;;;3.03;1.48;;;18.20;65.90;;;;;;5071497;28;20032;-27
2021/11/20 11:03:42;;;;;;;1.77;1.50;;;18.20;65.90;;;;;;5036337;28;20036;-26
2021/11/20 11:06:45;;;;;;;2.80;1.42;;;18.20;65.90;;;;;;5053878;28;20040;-22
2021/11/20 11:09:17;;;;;;;1.35;1.10;;;18.20;66.00;;;;;;5030641;28;20029;-25
2021/11/20 11:11:54;;;;;;;2.10;1.40;;;18.20;65.90;;;;;;5032543;28;20037;-21
2021/11/20 11:14:45;;;;;;;1.90;1.48;;;18.20;65.90;;;;;;5046163;28;20040;-23
2021/11/20 11:17:32;;;;;;;1.80;1.40;;;18.20;65.90;;;;;;5064610;28;20472;-20
2021/11/20 11:20:32;;;;;;;1.95;1.40;;;18.20;65.90;;;;;;5063293;28;20060;-25
2021/11/20 11:23:10;;;;;;;1.40;1.30;;;18.20;65.90;;;;;;5067256;28;20409;-24
2021/11/20 11:25:48;;;;;;;1.30;1.20;;;18.20;65.90;;;;;;5052137;28;20025;-28
2021/11/20 11:28:25;;;;;;;2.70;1.55;;;18.20;65.90;;;;;;5068683;28;20026;-26
2021/11/20 11:31:15;;;;;;;1.40;1.20;;;18.20;65.80;;;;;;5043697;28;20029;-28
2021/11/20 11:33:50;;;;;;;1.38;1.20;;;18.20;65.70;;;;;;5032263;28;20022;-24
2021/11/20 11:36:34;;;;;;;1.73;1.05;;;18.20;65.70;;;;;;5052385;28;20034;-29
2021/11/20 11:39:21;;;;;;;1.23;1.10;;;18.20;65.70;;;;;;5027650;28;20580;-22
2021/11/20 11:41:58;;;;;;;1.77;1.20;;;18.20;65.70;;;;;;5032658;28;20143;-27
2021/11/20 11:44:36;;;;;;;1.30;1.20;;;18.20;65.70;;;;;;5022963;28;20043;-28
2021/11/20 11:47:25;;;;;;;1.55;1.40;;;18.20;65.60;;;;;;5066601;28;20541;-29
2021/11/20 11:50:00;;;;;;;1.85;1.30;;;18.20;65.60;;;;;;5033342;28;20040;-24
2021/11/20 11:52:44;;;;;;;1.88;1.20;;;18.20;65.70;;;;;;5033368;28;20038;-29
2021/11/20 11:55:48;;;;;;;2.30;1.48;;;18.20;65.50;;;;;;5029649;28;20029;-28
2021/11/20 11:58:33;;;;;;;4.57;1.60;;;18.20;65.50;;;;;;5041878;28;20041;-28
2021/11/20 12:01:14;;;;;;;1.77;1.65;;;18.20;65.30;;;;;;5024564;28;20025;-24
2021/11/20 12:03:45;;;;;;;1.20;1.10;;;18.20;65.30;;;;;;5064611;28;20037;-27
2021/11/20 12:06:23;;;;;;;2.03;1.60;;;18.10;65.10;;;;;;5030558;28;20099;-21
2021/11/20 12:09:11;;;;;;;1.77;1.30;;;18.20;65.00;;;;;;5008397;28;20125;-26
2021/11/20 12:11:39;;;;;;;1.77;1.30;;;18.20;64.60;;;;;;5012793;28;20046;-22
2021/11/20 12:14:14;;;;;;;3.03;1.38;;;18.20;64.50;;;;;;5024905;28;20103;-26
2021/11/20 12:16:47;;;;;;;1.33;1.23;;;18.20;64.90;;;;;;5010783;28;20137;-20
2021/11/20 12:19:23;;;;;;;1.58;1.48;;;18.30;65.20;;;;;;5020361;28;20053;-25
2021/11/20 12:22:42;;;;;;;1.80;1.70;;;18.30;65.40;;;;;;5015031;28;20049;-20
2021/11/20 12:25:25;;;;;;;2.20;2.10;;;18.30;65.60;;;;;;5019557;28;20124;-25
2021/11/20 12:28:02;;;;;;;2.35;2.15;;;18.30;65.70;;;;;;5032781;28;20060;-21
2021/11/20 12:30:49;;;;;;;2.40;2.28;;;18.30;65.90;;;;;;5027374;28;20037;-22
2021/11/20 12:33:47;;;;;;;4.55;2.50;;;18.30;65.90;;;;;;5037684;28;20054;-26
2021/11/20 12:36:18;;;;;;;3.55;2.30;;;18.30;66.10;;;;;;5010902;28;20141;-27
2021/11/20 12:38:46;;;;;;;3.17;2.40;;;18.30;65.90;;;;;;5052029;28;20045;-25
2021/11/20 12:41:30;;;;;;;2.00;1.90;;;18.30;66.10;;;;;;5026602;28;20084;-24
2021/11/20 12:44:12;;;;;;;2.30;2.10;;;18.30;66.10;;;;;;5045803;28;20046;-24
2021/11/20 12:47:12;;;;;;;3.28;2.10;;;18.30;65.80;;;;;;5035035;28;20050;-23
2021/11/20 12:49:43;;;;;;;1.80;1.70;;;18.30;65.80;;;;;;5034766;28;20042;-25
2021/11/20 12:52:24;;;;;;;2.00;1.90;;;18.30;65.70;;;;;;5006645;28;20546;-20
2021/11/20 12:55:07;;;;;;;2.03;1.92;;;18.30;65.80;;;;;;5031825;28;20038;-26
2021/11/20 12:57:39;;;;;;;1.98;1.88;;;18.30;65.50;;;;;;5021223;28;20049;-30
2021/11/20 13:00:07;;;;;;;1.98;1.77;;;18.30;65.50;;;;;;5021062;28;20034;-20
2021/11/20 13:02:48;;;;;;;1.95;1.77;;;18.30;65.50;;;;;;5032883;28;20049;-24
2021/11/20 13:05:26;;;;;;;2.05;1.95;;;18.30;65.50;;;;;;5032511;28;20042;-23
2021/11/20 13:07:58;;;;;;;2.95;1.90;;;18.30;65.50;;;;;;5033553;28;20052;-29
2021/11/20 13:10:36;;;;;;;1.83;1.73;;;18.30;65.50;;;;;;5022764;28;20049;-26